Terminal Aerodrome Forecast
Issued by NWS Jackson, MS

Home | Current Version | Previous Version | Text Only | Print | Product List | Glossary On
Versions: 1 2 3 4 5 6 7 8 9 10 11 12 13
040
FTUS44 KJAN 201736
TAFMEI
TAF
KMEI 201736Z 2018/2118 18008KT P6SM SKC
     FM210600 16005KT P6SM VCSH BKN050
     FM211000 15005KT 5SM BR VCSH BKN025 OVC050
     FM211300 13004KT 3SM SHRA BR BKN015 OVC050
     FM211700 01005KT 4SM -RA BR OVC007=

USA.gov is the U.S. government's official web portal to all federal, state and local government web resources and services.